createdAt,value
2018-04-06T00:00:23.928Z,5.83
2018-04-06T00:01:04.341Z,5.74
2018-04-06T00:01:44.677Z,5.81
2018-04-06T00:02:25.085Z,5.77
2018-04-06T00:03:05.496Z,5.8
2018-04-06T00:03:45.881Z,5.75
2018-04-06T00:04:26.291Z,5.73
2018-04-06T00:05:06.656Z,5.73
2018-04-06T00:05:47.103Z,5.77
2018-04-06T00:06:27.507Z,5.75
2018-04-06T00:07:07.881Z,5.8
2018-04-06T00:07:48.271Z,5.73
2018-04-06T00:08:28.744Z,5.75
2018-04-06T00:09:09.090Z,5.74
2018-04-06T00:09:49.478Z,5.77
2018-04-06T00:10:29.863Z,5.75
2018-04-06T00:11:10.319Z,5.67
2018-04-06T00:11:50.692Z,5.67
2018-04-06T00:12:31.063Z,5.74
2018-04-06T00:13:11.454Z,5.6
2018-04-06T00:13:51.817Z,5.6
2018-04-06T00:14:32.280Z,5.63
2018-04-06T00:15:12.613Z,5.66
2018-04-06T00:15:53.083Z,5.75
2018-04-06T00:16:33.444Z,5.58
2018-04-06T00:17:13.880Z,5.6
2018-04-06T00:17:54.228Z,5.6
2018-04-06T00:18:35.452Z,5.51
2018-04-06T00:19:15.914Z,5.51
2018-04-06T00:19:56.284Z,5.48
2018-04-06T00:20:36.733Z,5.37
2018-04-06T00:21:17.151Z,5.51
2018-04-06T00:21:57.531Z,5.48
2018-04-06T00:22:37.977Z,5.45
2018-04-06T00:23:18.352Z,5.49
2018-04-06T00:23:58.724Z,5.45
2018-04-06T00:24:39.165Z,5.37
2018-04-06T00:25:19.592Z,5.4
2018-04-06T00:25:59.986Z,5.27
2018-04-06T00:26:40.271Z,5.29
2018-04-06T00:27:20.790Z,5.32
2018-04-06T00:28:01.147Z,5.24
2018-04-06T00:28:41.517Z,5.42
2018-04-06T00:29:21.889Z,5.33
2018-04-06T00:30:02.393Z,5.41
2018-04-06T00:30:42.656Z,5.44
2018-04-06T00:31:23.094Z,5.41
2018-04-06T00:32:03.484Z,5.41
2018-04-06T00:32:43.905Z,5.45
2018-04-06T00:33:24.268Z,5.49
2018-04-06T00:34:04.698Z,5.45
2018-04-06T00:34:45.070Z,5.62
2018-04-06T00:35:25.454Z,5.6
2018-04-06T00:36:05.846Z,5.63
2018-04-06T00:36:46.320Z,5.62
2018-04-06T00:37:26.695Z,5.65
2018-04-06T00:38:07.031Z,5.7
2018-04-06T00:38:47.508Z,5.7
2018-04-06T00:39:27.935Z,5.67
2018-04-06T00:40:08.373Z,5.77
2018-04-06T00:40:48.749Z,5.93
2018-04-06T00:41:29.093Z,6.01
2018-04-06T00:42:09.442Z,6.24
2018-04-06T00:42:49.873Z,6.3
2018-04-06T00:43:30.260Z,6.42
2018-04-06T00:44:10.653Z,6.57
2018-04-06T00:44:51.018Z,6.57
2018-04-06T00:45:31.423Z,6.64
2018-04-06T00:46:11.849Z,6.65
2018-04-06T00:46:52.277Z,6.57
2018-04-06T00:47:32.628Z,6.53
2018-04-06T00:48:13.036Z,6.5
2018-04-06T00:48:53.407Z,6.4
2018-04-06T00:49:33.798Z,6.4
2018-04-06T00:50:14.242Z,6.3
2018-04-06T00:50:54.696Z,6.32
2018-04-06T00:51:34.999Z,6.32
2018-04-06T00:52:15.402Z,6.46
2018-04-06T00:52:55.787Z,6.54
2018-04-06T00:53:36.228Z,6.63
2018-04-06T00:54:16.685Z,6.65
2018-04-06T00:54:56.964Z,6.65
2018-04-06T00:55:37.438Z,6.51
2018-04-06T00:56:17.872Z,6.55
2018-04-06T00:56:58.281Z,6.48
2018-04-06T00:57:38.700Z,6.38
2018-04-06T00:58:19.102Z,6.25
2018-04-06T00:58:59.533Z,6.25
2018-04-06T00:59:39.927Z,6.27
2018-04-06T01:00:20.269Z,6.06
2018-04-06T01:01:00.711Z,6.08
2018-04-06T01:01:41.096Z,6.13
2018-04-06T01:02:21.505Z,6.11
2018-04-06T01:03:01.886Z,6.19
2018-04-06T01:03:42.255Z,6.05
2018-04-06T01:04:22.746Z,6.14
2018-04-06T01:05:03.094Z,6.13
2018-04-06T01:05:43.439Z,6.21
2018-04-06T01:06:23.900Z,6.2
2018-04-06T01:07:04.255Z,6.14
2018-04-06T01:07:44.704Z,6.17
2018-04-06T01:08:25.093Z,6.14
2018-04-06T01:09:05.414Z,6.02
2018-04-06T01:09:45.859Z,6.05
2018-04-06T01:10:26.266Z,6.08
2018-04-06T01:11:06.644Z,6.02
2018-04-06T01:11:47.007Z,5.96
2018-04-06T01:12:27.466Z,5.88
2018-04-06T01:13:07.820Z,5.85
2018-04-06T01:13:48.255Z,5.83
2018-04-06T01:14:28.589Z,5.8
2018-04-06T01:15:08.970Z,5.78
2018-04-06T01:15:49.406Z,5.8
2018-04-06T01:16:29.740Z,5.78
2018-04-06T01:17:10.262Z,5.75
2018-04-06T01:17:50.557Z,5.69
2018-04-06T01:18:31.002Z,5.7
2018-04-06T01:19:11.485Z,5.78
2018-04-06T01:19:51.816Z,5.63
2018-04-06T01:20:32.301Z,5.66
2018-04-06T01:21:12.640Z,5.58
2018-04-06T01:21:52.989Z,5.6
2018-04-06T01:22:33.323Z,5.59
2018-04-06T01:23:13.753Z,5.62
2018-04-06T01:23:54.097Z,5.66
2018-04-06T01:24:34.529Z,5.56
2018-04-06T01:25:14.965Z,5.65
2018-04-06T01:25:55.269Z,5.62
2018-04-06T01:26:35.716Z,5.63
2018-04-06T01:27:16.071Z,5.56
2018-04-06T01:27:56.505Z,5.6
2018-04-06T01:28:36.880Z,5.56
2018-04-06T01:29:17.268Z,5.58
2018-04-06T01:29:57.668Z,5.6
2018-04-06T01:30:38.067Z,5.55
2018-04-06T01:31:18.504Z,5.59
2018-04-06T01:31:58.866Z,5.56
2018-04-06T01:32:39.294Z,5.6
2018-04-06T01:33:19.664Z,5.56
2018-04-06T01:34:00.054Z,5.52
2018-04-06T01:34:40.444Z,5.51
2018-04-06T01:35:20.848Z,5.56
2018-04-06T01:36:01.241Z,5.49
2018-04-06T01:36:41.632Z,5.62
2018-04-06T01:37:22.005Z,5.52
2018-04-06T01:38:02.421Z,5.47
2018-04-06T01:38:42.838Z,5.49
2018-04-06T01:39:23.291Z,5.51
2018-04-06T01:40:03.662Z,5.49
2018-04-06T01:40:44.128Z,5.49
2018-04-06T01:41:24.538Z,5.38
2018-04-06T01:42:04.962Z,5.44
2018-04-06T01:42:45.332Z,5.4
2018-04-06T01:43:25.807Z,5.4
2018-04-06T01:44:06.213Z,5.35
2018-04-06T01:44:46.557Z,5.33
2018-04-06T01:45:26.959Z,5.4
2018-04-06T01:46:07.403Z,5.41
2018-04-06T01:46:47.817Z,5.32
2018-04-06T01:47:28.214Z,5.44
2018-04-06T01:48:08.574Z,5.32
2018-04-06T01:48:48.957Z,5.35
2018-04-06T01:49:29.266Z,5.47
2018-04-06T01:50:09.686Z,5.51
2018-04-06T01:50:50.139Z,5.49
2018-04-06T01:51:30.513Z,5.35
2018-04-06T01:52:10.907Z,5.41
2018-04-06T01:52:51.246Z,5.32
2018-04-06T01:53:31.656Z,5.4
2018-04-06T01:54:12.099Z,5.26
2018-04-06T01:54:52.450Z,5.32
2018-04-06T01:55:32.845Z,5.33
2018-04-06T01:56:13.280Z,5.15
2018-04-06T01:56:53.721Z,5.26
2018-04-06T01:57:34.047Z,5.22
2018-04-06T01:58:14.432Z,5.14
2018-04-06T01:58:54.835Z,5.15
2018-04-06T01:59:35.196Z,5.2
2018-04-06T02:00:15.600Z,5.17
2018-04-06T02:00:55.999Z,5.14
2018-04-06T02:01:36.467Z,5.06
2018-04-06T02:02:16.894Z,5.14
2018-04-06T02:02:57.263Z,5.09
2018-04-06T02:03:37.708Z,4.94
2018-04-06T02:04:18.106Z,4.88
2018-04-06T02:04:58.521Z,4.79
2018-04-06T02:05:38.904Z,4.72
2018-04-06T02:06:19.300Z,4.67
2018-04-06T02:06:59.700Z,4.62
2018-04-06T02:07:40.080Z,4.74
2018-04-06T02:08:20.522Z,4.65
2018-04-06T02:09:00.872Z,4.64
2018-04-06T02:09:41.275Z,4.53
2018-04-06T02:10:21.701Z,4.68
2018-04-06T02:11:02.049Z,4.61
2018-04-06T02:11:42.517Z,4.54
2018-04-06T02:12:22.955Z,4.42
2018-04-06T02:13:03.340Z,4.36
2018-04-06T02:13:43.717Z,4.25
2018-04-06T02:14:24.111Z,4.17
2018-04-06T02:15:04.490Z,4.21
2018-04-06T02:15:44.899Z,4.14
2018-04-06T02:16:25.318Z,4.11
2018-04-06T02:17:05.650Z,4.14
2018-04-06T02:17:46.171Z,4.06
2018-04-06T02:18:26.535Z,4
2018-04-06T02:19:06.978Z,3.84
2018-04-06T02:19:47.372Z,3.78
2018-04-06T02:20:27.734Z,3.86
2018-04-06T02:21:08.159Z,3.8
2018-04-06T02:21:48.629Z,3.77
2018-04-06T02:22:29.022Z,3.89
2018-04-06T02:23:09.405Z,3.86
2018-04-06T02:23:49.819Z,3.82
2018-04-06T02:24:30.230Z,3.95
2018-04-06T02:25:10.569Z,3.95
2018-04-06T02:25:50.996Z,3.86
2018-04-06T02:26:31.363Z,3.95
2018-04-06T02:27:11.810Z,4.1
2018-04-06T02:27:52.140Z,4.2
2018-04-06T02:28:32.503Z,4.36
2018-04-06T02:29:12.884Z,4.29
2018-04-06T02:29:53.269Z,4.43
2018-04-06T02:30:33.647Z,4.54
2018-04-06T02:31:14.042Z,4.61
2018-04-06T02:31:54.401Z,4.68
2018-04-06T02:32:34.861Z,4.84
2018-04-06T02:33:15.199Z,4.9
2018-04-06T02:33:55.639Z,5.01
2018-04-06T02:34:36.023Z,5.01
2018-04-06T02:35:16.475Z,4.99
2018-04-06T02:35:56.871Z,4.99
2018-04-06T02:36:37.294Z,5.05
2018-04-06T02:37:17.661Z,4.94
2018-04-06T02:37:58.075Z,5.11
2018-04-06T02:38:38.454Z,5.01
2018-04-06T02:39:18.880Z,5.04
2018-04-06T02:39:59.241Z,5.05
2018-04-06T02:40:39.602Z,5.12
2018-04-06T02:41:20.025Z,5.08
2018-04-06T02:42:00.411Z,5.05
2018-04-06T02:42:40.834Z,5.04
2018-04-06T02:43:21.286Z,5.05
2018-04-06T02:44:01.728Z,4.96
2018-04-06T02:44:42.080Z,4.99
2018-04-06T02:45:22.509Z,4.9
2018-04-06T02:46:02.855Z,4.96
2018-04-06T02:46:43.314Z,4.86
2018-04-06T02:47:23.680Z,4.84
2018-04-06T02:48:04.123Z,4.87
2018-04-06T02:48:44.557Z,4.9
2018-04-06T02:49:24.960Z,4.91
2018-04-06T02:50:05.417Z,4.86
2018-04-06T02:50:45.718Z,4.86
2018-04-06T02:51:26.128Z,4.8
2018-04-06T02:52:06.517Z,4.77
2018-04-06T02:52:46.905Z,4.79
2018-04-06T02:53:27.330Z,4.71
2018-04-06T02:54:07.736Z,4.86
2018-04-06T02:54:48.121Z,4.83
2018-04-06T02:55:28.454Z,4.79
2018-04-06T02:56:08.890Z,4.86
2018-04-06T02:56:49.246Z,4.9
2018-04-06T02:57:29.649Z,4.93
2018-04-06T02:58:10.013Z,4.86
2018-04-06T02:58:50.400Z,5.09
2018-04-06T02:59:30.855Z,5.08
2018-04-06T03:00:11.270Z,5.05
2018-04-06T03:00:51.636Z,4.99
2018-04-06T03:01:31.988Z,4.93
2018-04-06T03:02:12.456Z,4.93
2018-04-06T03:02:52.878Z,4.88
2018-04-06T03:03:33.233Z,4.93
2018-04-06T03:04:13.655Z,4.88
2018-04-06T03:04:54.069Z,4.96
2018-04-06T03:05:34.479Z,4.88
2018-04-06T03:06:14.889Z,4.9
2018-04-06T03:06:55.243Z,4.93
2018-04-06T03:07:35.638Z,4.91
2018-04-06T03:08:16.098Z,4.88
2018-04-06T03:08:56.450Z,4.94
2018-04-06T03:09:36.848Z,4.87
2018-04-06T03:10:17.348Z,4.88
2018-04-06T03:10:57.701Z,4.91
2018-04-06T03:11:38.097Z,4.93
2018-04-06T03:12:18.471Z,5.06
2018-04-06T03:12:58.876Z,5.08
2018-04-06T03:13:39.229Z,5.06
2018-04-06T03:14:19.656Z,4.96
2018-04-06T03:15:00.000Z,4.9
2018-04-06T03:15:40.451Z,4.99
2018-04-06T03:16:20.838Z,5.06
2018-04-06T03:17:01.211Z,5.09
2018-04-06T03:17:41.640Z,5.27
2018-04-06T03:18:21.950Z,5.24
2018-04-06T03:19:02.383Z,5.27
2018-04-06T03:19:42.752Z,5.37
2018-04-06T03:20:23.190Z,5.27
2018-04-06T03:21:03.648Z,5.38
2018-04-06T03:21:43.947Z,5.32
2018-04-06T03:22:24.345Z,5.22
2018-04-06T03:23:04.797Z,5.15
2018-04-06T03:23:45.194Z,5.11
2018-04-06T03:24:25.571Z,5.17
2018-04-06T03:25:05.965Z,5.14
2018-04-06T03:25:46.309Z,5.04
2018-04-06T03:26:26.855Z,5.06
2018-04-06T03:27:07.210Z,4.9
2018-04-06T03:27:47.548Z,4.88
2018-04-06T03:28:27.963Z,4.8
2018-04-06T03:29:08.386Z,4.71
2018-04-06T03:29:48.798Z,4.75
2018-04-06T03:30:29.243Z,4.64
2018-04-06T03:31:09.637Z,4.65
2018-04-06T03:31:49.967Z,4.72
2018-04-06T03:32:30.420Z,4.79
2018-04-06T03:33:10.710Z,4.91
2018-04-06T03:33:51.147Z,4.9
2018-04-06T03:34:31.561Z,4.77
2018-04-06T03:35:11.979Z,4.84
2018-04-06T03:35:52.405Z,4.86
2018-04-06T03:36:32.754Z,5.09
2018-04-06T03:37:13.152Z,5.17
2018-04-06T03:37:53.571Z,5.41
2018-04-06T03:38:33.977Z,5.44
2018-04-06T03:39:14.391Z,5.4
2018-04-06T03:39:54.737Z,5.4
2018-04-06T03:40:35.188Z,5.38
2018-04-06T03:41:15.541Z,5.3
2018-04-06T03:41:56.023Z,5.37
2018-04-06T03:42:36.313Z,5.26
2018-04-06T03:43:16.786Z,5.32
2018-04-06T03:43:57.176Z,5.26
2018-04-06T03:44:37.534Z,5.26
2018-04-06T03:45:18.041Z,5.23
2018-04-06T03:45:58.480Z,5.2
2018-04-06T03:46:38.847Z,5.12
2018-04-06T03:47:19.334Z,5.2
2018-04-06T03:47:59.668Z,5.04
2018-04-06T03:48:40.121Z,5.06
2018-04-06T03:49:20.536Z,5.05
2018-04-06T03:50:00.879Z,5.08
2018-04-06T03:50:41.778Z,5.06
2018-04-06T03:51:21.695Z,5.01
2018-04-06T03:52:02.078Z,4.96
2018-04-06T03:52:42.510Z,4.88
2018-04-06T03:53:22.836Z,4.87
2018-04-06T03:54:03.289Z,4.9
2018-04-06T03:54:43.659Z,4.9
2018-04-06T03:55:24.030Z,4.79
2018-04-06T03:56:04.459Z,4.8
2018-04-06T03:56:44.869Z,4.69
2018-04-06T03:57:25.231Z,4.72
2018-04-06T03:58:05.595Z,4.68
2018-04-06T03:58:46.018Z,4.62
2018-04-06T03:59:26.494Z,4.64
2018-04-06T04:00:06.933Z,4.64
2018-04-06T04:00:47.363Z,4.5
2018-04-06T04:01:27.700Z,4.49
2018-04-06T04:41:23.679Z,4.32
2018-04-06T04:42:03.784Z,4.29
2018-04-06T04:42:44.179Z,4.28
2018-04-06T04:43:24.601Z,4.17
2018-04-06T04:44:05.039Z,4.11
2018-04-06T04:44:45.491Z,4.04
2018-04-06T04:45:25.825Z,3.93
2018-04-06T04:46:06.385Z,3.84
2018-04-06T04:46:46.761Z,3.75
2018-04-06T04:47:26.992Z,3.67
2018-04-06T04:48:07.612Z,3.62
2018-04-06T04:48:47.979Z,3.59
2018-04-06T04:49:28.527Z,3.53
2018-04-06T04:50:08.907Z,3.52
2018-04-06T04:50:49.272Z,3.45
2018-04-06T04:51:29.736Z,3.52
2018-04-06T04:52:10.229Z,3.41
2018-04-06T04:52:50.634Z,3.59
2018-04-06T04:53:31.095Z,3.54
2018-04-06T04:54:11.404Z,3.59
2018-04-06T04:54:51.840Z,3.68
2018-04-06T04:55:32.388Z,3.63
2018-04-06T04:56:12.868Z,3.57
2018-04-06T04:56:53.481Z,3.6
2018-04-06T04:57:33.824Z,3.57
2018-04-06T04:58:14.154Z,3.59
2018-04-06T04:58:54.603Z,3.57
2018-04-06T04:59:35.013Z,3.56
2018-04-06T05:00:15.439Z,3.67
2018-04-06T05:00:55.969Z,3.63
2018-04-06T05:01:36.509Z,3.62
2018-04-06T05:02:16.804Z,3.67
2018-04-06T05:02:58.244Z,3.57
2018-04-06T05:03:49.743Z,3.72
2018-04-06T05:04:30.206Z,3.77
2018-04-06T05:05:10.694Z,3.78
2018-04-06T05:05:51.428Z,3.81
2018-04-06T05:06:32.245Z,3.82
2018-04-06T05:07:13.110Z,3.84
2018-04-06T05:07:53.522Z,3.9
2018-04-06T05:08:34.169Z,3.92
2018-04-06T05:09:14.796Z,3.95
2018-04-06T05:09:55.499Z,4.02
2018-04-06T05:10:36.045Z,4.13
2018-04-06T05:11:16.744Z,4.17
2018-04-06T05:11:56.739Z,4.32
2018-04-06T05:12:37.141Z,4.49
2018-04-06T05:13:17.548Z,4.57
2018-04-06T05:13:58.024Z,4.69
2018-04-06T05:14:38.324Z,4.8
2018-04-06T05:15:18.676Z,5.09
2018-04-06T05:15:59.154Z,5.02
2018-04-06T05:16:39.535Z,5.05
2018-04-06T05:17:19.875Z,5.12
2018-04-06T05:18:00.745Z,5.14
2018-04-06T05:18:40.678Z,5.2
2018-04-06T05:19:21.431Z,5.17
2018-04-06T05:20:01.983Z,5.33
2018-04-06T05:20:42.418Z,5.44
2018-04-06T05:21:23.306Z,5.45
2018-04-06T05:22:04.861Z,5.52
2018-04-06T05:22:48.941Z,5.62
2018-04-06T05:23:33.059Z,5.63
2018-04-06T05:24:14.324Z,5.65
2018-04-06T05:24:54.699Z,5.69
2018-04-06T05:25:35.126Z,5.73
2018-04-06T05:26:15.745Z,5.78
2018-04-06T05:26:56.263Z,5.92
2018-04-06T05:27:36.975Z,5.9
2018-04-06T05:28:17.300Z,6.08
2018-04-06T05:28:57.853Z,6.1
2018-04-06T05:29:39.514Z,6.11
2018-04-06T05:30:20.824Z,6.35
2018-04-06T05:31:02.138Z,6.42
2018-04-06T05:31:42.362Z,6.51
2018-04-06T05:32:40.493Z,6.69
2018-04-06T05:33:22.430Z,6.91
2018-04-06T05:34:03.758Z,7.04
2018-04-06T05:34:44.111Z,7.08
2018-04-06T05:35:25.788Z,7.16
2018-04-06T05:36:06.321Z,7.27
2018-04-06T05:36:47.725Z,7.32
2018-04-06T05:37:28.669Z,7.51
2018-04-06T05:38:13.383Z,7.48
2018-04-06T05:38:54.195Z,7.57
2018-04-06T05:39:39.223Z,7.62
2018-04-06T05:41:31.631Z,7.62
2018-04-06T05:42:12.361Z,7.7
2018-04-06T05:42:52.777Z,7.79
2018-04-06T05:43:33.146Z,7.88
2018-04-06T05:44:13.549Z,7.84
2018-04-06T05:44:53.954Z,7.85
2018-04-06T05:45:34.475Z,7.85
2018-04-06T05:46:14.874Z,7.94
2018-04-06T05:46:55.476Z,8.06
2018-04-06T05:47:35.768Z,8.14
2018-04-06T05:48:16.156Z,8.27
2018-04-06T05:48:56.736Z,8.39
2018-04-06T05:49:37.075Z,8.49
2018-04-06T05:50:17.467Z,8.63
2018-04-06T05:50:57.891Z,8.76
2018-04-06T05:51:38.461Z,8.71
2018-04-06T05:52:20.500Z,8.8
2018-04-06T05:53:01.567Z,8.67
2018-04-06T05:53:41.869Z,8.71
2018-04-06T05:54:22.556Z,8.78
2018-04-06T05:55:03.047Z,9.06
2018-04-06T05:55:43.509Z,9.03
2018-04-06T05:56:23.901Z,9.17
2018-04-06T05:57:05.464Z,9.22
2018-04-06T05:57:45.876Z,9.16
2018-04-06T05:58:26.761Z,9.08
2018-04-06T05:59:07.249Z,9.23
2018-04-06T05:59:47.861Z,9.31
2018-04-06T06:00:30.361Z,9.4
2018-04-06T06:01:12.324Z,9.32
2018-04-06T06:01:52.306Z,9.35
2018-04-06T06:02:34.056Z,9.31
2018-04-06T06:03:14.477Z,9.31
2018-04-06T06:03:54.873Z,9.44
2018-04-06T06:04:38.465Z,9.86
2018-04-06T06:05:19.149Z,9.99
2018-04-06T06:05:59.380Z,10.16
2018-04-06T06:06:39.733Z,10.22
2018-04-06T06:07:20.778Z,10.17
2018-04-06T06:08:01.646Z,10.26
2018-04-06T06:08:43.404Z,10.11
2018-04-06T06:10:23.616Z,9.98
2018-04-06T06:11:06.364Z,9.85
2018-04-06T06:11:46.809Z,9.74
2018-04-06T06:12:27.340Z,9.77
2018-04-06T06:13:09.552Z,9.98
2018-04-06T06:13:50.564Z,10.02
2018-04-06T06:14:31.119Z,10.06
2018-04-06T06:15:11.806Z,10.01
2018-04-06T06:15:54.414Z,9.92
2018-04-06T06:16:35.327Z,9.98
2018-04-06T06:17:15.928Z,9.95
2018-04-06T06:17:57.067Z,9.89
2018-04-06T06:18:38.528Z,9.92
2018-04-06T06:19:19.263Z,9.95
2018-04-06T06:20:00.227Z,9.95
2018-04-06T06:20:40.527Z,9.74
2018-04-06T06:21:21.061Z,9.83
2018-04-06T06:22:02.152Z,9.78
2018-04-06T06:24:02.792Z,9.41
2018-04-06T06:24:46.607Z,9.24
2018-04-06T06:25:27.336Z,9.13
2018-04-06T06:26:07.816Z,9.13
2018-04-06T06:26:48.537Z,9.1
2018-04-06T06:27:29.001Z,8.88
2018-04-06T06:28:10.281Z,8.61
2018-04-06T06:28:52.710Z,8.58
2018-04-06T06:29:33.280Z,8.54
2018-04-06T06:30:14.756Z,8.4
2018-04-06T06:30:56.532Z,8.4
2018-04-06T06:31:36.802Z,8.47
2018-04-06T06:32:18.160Z,8.5
2018-04-06T06:32:59.559Z,8.61
2018-04-06T06:33:39.582Z,8.54
2018-04-06T06:34:22.988Z,8.22
2018-04-06T06:35:03.271Z,8.37
2018-04-06T06:35:44.155Z,8.31
2018-04-06T06:36:26.304Z,8.32
2018-04-06T06:37:07.333Z,8.28
2018-04-06T06:37:49.366Z,8.21
2018-04-06T06:38:29.845Z,8.04
2018-04-06T06:39:11.803Z,7.99
2018-04-06T06:39:54.066Z,7.92
2018-04-06T06:40:34.006Z,7.81
2018-04-06T06:41:14.468Z,7.84
2018-04-06T06:41:55.524Z,7.92
2018-04-06T06:42:36.048Z,7.79
2018-04-06T06:43:16.572Z,7.85
2018-04-06T06:43:57.203Z,7.84
2018-04-06T06:44:37.709Z,7.94
2018-04-06T06:45:18.371Z,7.96
2018-04-06T06:46:00.098Z,7.79
2018-04-06T06:46:42.854Z,7.82
2018-04-06T06:47:23.437Z,7.99
2018-04-06T06:48:04.359Z,8.02
2018-04-06T06:48:45.622Z,8.17
2018-04-06T06:49:26.963Z,8.34
2018-04-06T06:50:10.166Z,8.34
2018-04-06T06:50:50.960Z,8.39
2018-04-06T06:51:31.841Z,8.49
2018-04-06T06:52:12.386Z,8.37
2018-04-06T06:52:52.964Z,8.27
2018-04-06T06:53:34.392Z,8.18
2018-04-06T06:54:16.144Z,8.18
2018-04-06T06:54:58.338Z,8.46
2018-04-06T06:55:38.712Z,8.78
2018-04-06T06:56:19.146Z,8.73
2018-04-06T06:57:00.768Z,8.73
2018-04-06T06:57:41.386Z,8.71
2018-04-06T06:58:22.787Z,8.52
2018-04-06T06:59:03.274Z,8.4
2018-04-06T06:59:45.121Z,8.25
2018-04-06T07:00:27.378Z,8.17
2018-04-06T07:01:07.856Z,8.31
2018-04-06T07:01:48.328Z,8.18
2018-04-06T07:02:29.092Z,8.14
2018-04-06T07:03:09.260Z,8
2018-04-06T07:03:49.582Z,7.92
2018-04-06T07:04:30.240Z,7.77
2018-04-06T07:05:10.753Z,7.73
2018-04-06T07:05:51.182Z,7.81
2018-04-06T07:06:32.445Z,7.77
2018-04-06T07:07:13.808Z,7.71
2018-04-06T07:07:54.342Z,8.1
2018-04-06T07:08:35.835Z,8.32
2018-04-06T07:09:17.036Z,8.46
2018-04-06T07:09:57.374Z,8.78
2018-04-06T07:10:37.801Z,8.91
2018-04-06T07:12:51.760Z,9.27
2018-04-06T07:13:32.272Z,9.16
2018-04-06T07:14:12.744Z,9.32
2018-04-06T07:16:09.823Z,9.24
2018-04-06T07:16:50.706Z,9.2
2018-04-06T07:17:31.505Z,9.31
2018-04-06T07:18:12.000Z,9.3
2018-04-06T07:18:52.106Z,9.22
2018-04-06T07:19:32.616Z,9.24
2018-04-06T07:20:13.085Z,9.16
2018-04-06T07:20:53.390Z,9.16
2018-04-06T07:21:33.878Z,9.08
2018-04-06T07:22:14.426Z,9.1
2018-04-06T07:22:54.729Z,9.22
2018-04-06T07:23:35.120Z,9.45
2018-04-06T07:24:15.619Z,9.62
2018-04-06T07:24:56.111Z,9.67
2018-04-06T07:25:36.484Z,9.71
2018-04-06T07:26:16.917Z,9.88
2018-04-06T07:26:57.462Z,9.98
2018-04-06T07:27:38.004Z,10.16
2018-04-06T07:28:18.898Z,10.22
2018-04-06T07:28:59.328Z,10.28
2018-04-06T07:29:39.720Z,10.32
2018-04-06T07:30:20.201Z,10.31
2018-04-06T07:31:00.759Z,10.22
2018-04-06T07:31:41.805Z,9.95
2018-04-06T07:32:23.037Z,9.71
2018-04-06T07:33:03.520Z,9.5
2018-04-06T07:33:44.096Z,9.4
2018-04-06T07:34:24.462Z,9.35
2018-04-06T07:35:04.834Z,9.27
2018-04-06T07:35:45.306Z,9.42
2018-04-06T07:36:25.774Z,9.48
2018-04-06T07:37:06.212Z,9.44
2018-04-06T07:37:46.649Z,9.34
2018-04-06T07:38:27.223Z,9.38
2018-04-06T07:39:07.589Z,9.62
2018-04-06T07:39:48.907Z,9.68
2018-04-06T07:40:28.676Z,9.89
2018-04-06T07:41:09.218Z,9.98
2018-04-06T07:41:49.610Z,10.07
2018-04-06T07:42:30.039Z,10.2
2018-04-06T07:43:10.983Z,10.28
2018-04-06T07:43:58.154Z,10.26
2018-04-06T07:44:38.788Z,10.09
2018-04-06T07:45:19.423Z,10.04
2018-04-06T07:45:59.791Z,10.07
2018-04-06T07:46:42.500Z,9.98
2018-04-06T07:47:22.490Z,10.11
2018-04-06T07:48:03.415Z,10.32
2018-04-06T07:48:44.086Z,10.35
2018-04-06T07:49:25.239Z,10.43
2018-04-06T07:50:05.727Z,10.54
2018-04-06T07:50:46.096Z,10.54
2018-04-06T07:51:26.774Z,10.58
2018-04-06T07:52:07.602Z,10.54
2018-04-06T07:52:48.867Z,10.43
2018-04-06T07:53:29.470Z,10.29
2018-04-06T07:54:10.606Z,10.16
2018-04-06T07:54:51.047Z,10.01
2018-04-06T07:55:31.809Z,10.01
2018-04-06T07:56:12.235Z,9.96
2018-04-06T07:56:52.677Z,9.99
2018-04-06T07:57:33.285Z,10.11
2018-04-06T07:58:15.008Z,10.25
2018-04-06T07:58:54.576Z,10.34
2018-04-06T07:59:35.109Z,10.42
2018-04-06T08:00:15.660Z,10.44
2018-04-06T08:00:56.337Z,10.57
2018-04-06T08:01:37.064Z,10.63
2018-04-06T08:02:24.964Z,10.68
2018-04-06T08:03:35.244Z,10.87
2018-04-06T08:04:15.580Z,10.91
2018-04-06T08:05:11.964Z,10.88
2018-04-06T08:06:25.594Z,10.88
2018-04-06T08:07:06.288Z,11.08
2018-04-06T08:07:46.833Z,11.11
2018-04-06T08:08:27.405Z,11.09
2018-04-06T08:09:08.265Z,11.05
2018-04-06T08:09:49.101Z,10.91
2018-04-06T08:10:30.047Z,10.88
2018-04-06T08:11:10.602Z,10.84
2018-04-06T08:11:50.970Z,10.7
2018-04-06T08:12:31.472Z,10.93
2018-04-06T08:13:12.275Z,11.01
2018-04-06T08:13:52.471Z,11.11
2018-04-06T08:14:34.218Z,10.98
2018-04-06T08:15:14.639Z,10.95
2018-04-06T08:15:55.442Z,10.86
2018-04-06T08:16:35.745Z,10.91
2018-04-06T08:17:16.125Z,10.72
2018-04-06T08:17:56.608Z,10.75
2018-04-06T08:18:37.654Z,10.73
2018-04-06T08:19:20.446Z,10.88
2018-04-06T08:20:31.754Z,10.88
2018-04-06T08:21:12.392Z,10.73
2018-04-06T08:21:53.418Z,10.58
2018-04-06T08:22:34.294Z,10.52
2018-04-06T08:23:16.957Z,10.54
2018-04-06T08:23:58.107Z,10.44
2018-04-06T08:25:00.046Z,10.51
2018-04-06T08:27:25.989Z,10.55
2018-04-06T08:28:06.628Z,10.72
2018-04-06T08:28:47.134Z,10.78
2018-04-06T08:29:27.589Z,10.72
2018-04-06T08:30:08.136Z,10.83
2018-04-06T08:30:48.986Z,10.99
2018-04-06T08:31:31.046Z,10.95
2018-04-06T08:32:11.569Z,11.11
2018-04-06T08:32:51.741Z,11.17
2018-04-06T08:33:32.262Z,11.39
2018-04-06T08:34:13.712Z,11.49
2018-04-06T08:34:55.066Z,11.33
2018-04-06T08:35:35.664Z,11.31
2018-04-06T08:36:18.248Z,11.16
2018-04-06T08:36:59.078Z,10.95
2018-04-06T08:37:40.316Z,10.88
2018-04-06T08:38:22.104Z,10.91
2018-04-06T08:39:02.703Z,10.91
2018-04-06T08:39:43.048Z,10.95
2018-04-06T08:40:23.421Z,11.05
2018-04-06T08:41:03.864Z,10.87
2018-04-06T08:41:44.340Z,10.88
2018-04-06T08:42:25.028Z,10.66
2018-04-06T08:43:06.301Z,10.65
2018-04-06T08:43:46.784Z,10.73
2018-04-06T08:44:27.400Z,10.72
2018-04-06T08:45:08.795Z,10.72
2018-04-06T08:45:50.099Z,10.86
2018-04-06T08:46:30.516Z,10.75
2018-04-06T08:47:11.437Z,10.73
2018-04-06T08:47:51.839Z,10.69
2018-04-06T08:48:32.590Z,10.73
2018-04-06T08:49:13.375Z,10.81
2018-04-06T08:49:53.843Z,10.9
2018-04-06T08:50:34.861Z,10.95
2018-04-06T08:51:15.494Z,10.93
2018-04-06T08:51:56.269Z,10.94
2018-04-06T08:52:36.439Z,11.03
2018-04-06T08:53:16.867Z,11.19
2018-04-06T08:54:01.837Z,11.38
2018-04-06T08:54:50.206Z,11.39
2018-04-06T08:55:31.603Z,11.39
2018-04-06T08:56:12.616Z,11.41
2018-04-06T08:56:53.638Z,11.42
2018-04-06T08:57:34.706Z,11.39
2018-04-06T08:58:15.152Z,11.31
2018-04-06T08:58:55.645Z,11.24
2018-04-06T08:59:36.633Z,11.16
2018-04-06T09:00:17.428Z,11.19
2018-04-06T09:00:58.051Z,11.05
2018-04-06T09:01:39.724Z,11.19
2018-04-06T09:02:31.591Z,11.2
2018-04-06T09:03:12.244Z,11.19
2018-04-06T09:03:52.741Z,11.16
2018-04-06T09:04:33.514Z,11.28
2018-04-06T09:05:14.173Z,11.31
2018-04-06T09:05:54.540Z,11.7
2018-04-06T09:06:35.056Z,11.74
2018-04-06T09:07:15.527Z,11.84
2018-04-06T09:07:57.820Z,11.98
2018-04-06T09:08:38.173Z,12.16
2018-04-06T09:09:18.716Z,12.34
2018-04-06T09:11:32.348Z,12.12
2018-04-06T09:12:13.596Z,12.31
2018-04-06T09:12:54.155Z,12.29
2018-04-06T09:13:34.565Z,12.44
2018-04-06T09:14:15.689Z,12.43
2018-04-06T09:14:56.258Z,12.59
2018-04-06T09:15:37.739Z,12.67
2018-04-06T09:16:18.474Z,12.79
2018-04-06T09:16:59.213Z,12.61
2018-04-06T09:17:40.069Z,12.74
2018-04-06T09:18:20.771Z,12.71
2018-04-06T09:19:01.054Z,12.76
2018-04-06T09:19:41.502Z,12.92
2018-04-06T09:20:21.958Z,13.09
2018-04-06T09:21:02.478Z,13.04
2018-04-06T09:21:42.894Z,13.13
2018-04-06T09:22:23.497Z,13.1
2018-04-06T09:23:04.654Z,13.01
2018-04-06T09:23:45.354Z,12.96
2018-04-06T09:24:25.905Z,12.98
2018-04-06T09:25:06.246Z,13.04
2018-04-06T09:25:46.683Z,12.94
2018-04-06T09:26:28.054Z,12.96
2018-04-06T09:27:08.598Z,12.87
2018-04-06T09:27:49.154Z,12.74
2018-04-06T09:28:29.574Z,12.8
2018-04-06T09:29:10.071Z,12.96
2018-04-06T09:29:50.596Z,13.13
2018-04-06T09:30:31.233Z,12.98
2018-04-06T09:31:11.476Z,12.77
2018-04-06T09:31:52.886Z,12.8
2018-04-06T09:32:33.463Z,12.79
2018-04-06T09:33:13.953Z,12.85
2018-04-06T09:33:54.383Z,12.76
2018-04-06T09:34:34.829Z,12.74
2018-04-06T09:35:15.249Z,12.77
2018-04-06T09:35:55.639Z,12.81
2018-04-06T09:36:36.441Z,13.01
2018-04-06T09:37:16.591Z,13.07
2018-04-06T09:37:57.032Z,13.22
2018-04-06T09:38:37.828Z,13.44
2018-04-06T09:39:17.922Z,13.47
2018-04-06T09:39:58.325Z,13.69
2018-04-06T09:40:38.760Z,13.81
2018-04-06T09:41:20.197Z,13.69
2018-04-06T09:42:00.309Z,13.59
2018-04-06T09:42:40.641Z,13.32
2018-04-06T09:43:21.477Z,13.25
2018-04-06T09:44:02.335Z,13.21
2018-04-06T09:44:42.364Z,13.22
2018-04-06T09:45:23.033Z,13.24
2018-04-06T09:46:04.338Z,13.24
2018-04-06T09:46:45.266Z,13.07
2018-04-06T09:47:25.776Z,12.96
2018-04-06T09:48:06.406Z,12.77
2018-04-06T09:48:46.618Z,12.76
2018-04-06T09:49:27.216Z,12.55
2018-04-06T09:50:09.232Z,12.58